sensor_id;sensor_type;location;lat;lon;timestamp;P1;durP1;ratioP1;P2;durP2;ratioP2
6791;SDS011;3433;48.730;9.108;2023-05-18T00:01:36;7.53;;;4.47;;
6791;SDS011;3433;48.730;9.108;2023-05-18T00:04:05;7.77;;;4.63;;
6791;SDS011;3433;48.730;9.108;2023-05-18T00:06:32;6.43;;;4.50;;
6791;SDS011;3433;48.730;9.108;2023-05-18T00:08:58;7.43;;;6.57;;
6791;SDS011;3433;48.730;9.108;2023-05-18T00:11:29;8.10;;;4.87;;
6791;SDS011;3433;48.730;9.108;2023-05-18T00:13:57;7.23;;;5.10;;
6791;SDS011;3433;48.730;9.108;2023-05-18T00:16:24;8.03;;;4.73;;
6791;SDS011;3433;48.730;9.108;2023-05-18T00:18:51;8.20;;;5.30;;
6791;SDS011;3433;48.730;9.108;2023-05-18T00:21:18;8.50;;;4.47;;
6791;SDS011;3433;48.730;9.108;2023-05-18T00:23:46;10.30;;;4.83;;
6791;SDS011;3433;48.730;9.108;2023-05-18T00:26:14;7.17;;;4.80;;
6791;SDS011;3433;48.730;9.108;2023-05-18T00:28:42;7.63;;;4.57;;
6791;SDS011;3433;48.730;9.108;2023-05-18T00:31:09;8.00;;;5.20;;
6791;SDS011;3433;48.730;9.108;2023-05-18T00:33:36;8.70;;;5.40;;
6791;SDS011;3433;48.730;9.108;2023-05-18T00:36:04;9.57;;;5.43;;
6791;SDS011;3433;48.730;9.108;2023-05-18T00:38:32;8.03;;;4.60;;
6791;SDS011;3433;48.730;9.108;2023-05-18T00:40:58;7.77;;;5.03;;
6791;SDS011;3433;48.730;9.108;2023-05-18T00:43:28;6.23;;;4.70;;
6791;SDS011;3433;48.730;9.108;2023-05-18T00:45:56;7.57;;;5.00;;
6791;SDS011;3433;48.730;9.108;2023-05-18T00:48:26;11.63;;;5.33;;
6791;SDS011;3433;48.730;9.108;2023-05-18T00:50:53;8.57;;;4.77;;
6791;SDS011;3433;48.730;9.108;2023-05-18T00:53:20;9.60;;;5.17;;
6791;SDS011;3433;48.730;9.108;2023-05-18T00:55:47;8.90;;;5.13;;
6791;SDS011;3433;48.730;9.108;2023-05-18T00:58:14;11.80;;;5.00;;
6791;SDS011;3433;48.730;9.108;2023-05-18T01:00:42;8.97;;;5.73;;
6791;SDS011;3433;48.730;9.108;2023-05-18T01:03:10;11.43;;;5.60;;
6791;SDS011;3433;48.730;9.108;2023-05-18T01:05:39;13.00;;;5.10;;
6791;SDS011;3433;48.730;9.108;2023-05-18T01:08:06;8.27;;;5.50;;
6791;SDS011;3433;48.730;9.108;2023-05-18T01:10:35;8.33;;;6.13;;
6791;SDS011;3433;48.730;9.108;2023-05-18T01:13:04;8.63;;;5.40;;
6791;SDS011;3433;48.730;9.108;2023-05-18T01:15:35;11.53;;;5.30;;
6791;SDS011;3433;48.730;9.108;2023-05-18T01:18:06;7.67;;;5.57;;
6791;SDS011;3433;48.730;9.108;2023-05-18T01:20:40;7.17;;;5.17;;
6791;SDS011;3433;48.730;9.108;2023-05-18T01:26:21;6.93;;;4.70;;
6791;SDS011;3433;48.730;9.108;2023-05-18T01:28:53;8.77;;;5.27;;
6791;SDS011;3433;48.730;9.108;2023-05-18T01:31:26;9.43;;;5.67;;
6791;SDS011;3433;48.730;9.108;2023-05-18T01:33:54;11.97;;;5.30;;
6791;SDS011;3433;48.730;9.108;2023-05-18T01:36:21;9.20;;;5.53;;
6791;SDS011;3433;48.730;9.108;2023-05-18T01:38:48;9.60;;;5.60;;
6791;SDS011;3433;48.730;9.108;2023-05-18T01:41:17;9.53;;;5.50;;
6791;SDS011;3433;48.730;9.108;2023-05-18T01:43:51;10.20;;;5.90;;
6791;SDS011;3433;48.730;9.108;2023-05-18T01:46:33;9.60;;;5.60;;
6791;SDS011;3433;48.730;9.108;2023-05-18T01:49:07;8.63;;;5.40;;
6791;SDS011;3433;48.730;9.108;2023-05-18T01:51:40;9.73;;;6.20;;
6791;SDS011;3433;48.730;9.108;2023-05-18T01:54:11;10.17;;;5.23;;
6791;SDS011;3433;48.730;9.108;2023-05-18T01:56:42;7.70;;;5.10;;
6791;SDS011;3433;48.730;9.108;2023-05-18T01:59:11;9.47;;;5.20;;
6791;SDS011;3433;48.730;9.108;2023-05-18T02:01:40;6.70;;;5.00;;
6791;SDS011;3433;48.730;9.108;2023-05-18T02:04:07;11.67;;;5.70;;
6791;SDS011;3433;48.730;9.108;2023-05-18T02:06:34;9.03;;;5.97;;
6791;SDS011;3433;48.730;9.108;2023-05-18T02:09:02;8.97;;;5.43;;
6791;SDS011;3433;48.730;9.108;2023-05-18T02:11:29;8.90;;;5.10;;
6791;SDS011;3433;48.730;9.108;2023-05-18T02:13:56;11.77;;;5.60;;
6791;SDS011;3433;48.730;9.108;2023-05-18T02:16:24;13.13;;;5.80;;
6791;SDS011;3433;48.730;9.108;2023-05-18T02:18:51;7.23;;;5.77;;
6791;SDS011;3433;48.730;9.108;2023-05-18T02:21:18;7.93;;;4.90;;
6791;SDS011;3433;48.730;9.108;2023-05-18T02:23:46;7.30;;;4.80;;
6791;SDS011;3433;48.730;9.108;2023-05-18T02:26:13;7.97;;;5.17;;
6791;SDS011;3433;48.730;9.108;2023-05-18T02:28:40;6.57;;;4.73;;
6791;SDS011;3433;48.730;9.108;2023-05-18T02:31:07;9.70;;;5.47;;
6791;SDS011;3433;48.730;9.108;2023-05-18T02:33:37;6.23;;;5.00;;
6791;SDS011;3433;48.730;9.108;2023-05-18T02:36:05;8.90;;;5.90;;
6791;SDS011;3433;48.730;9.108;2023-05-18T02:38:34;8.30;;;5.50;;
6791;SDS011;3433;48.730;9.108;2023-05-18T02:41:02;7.97;;;5.87;;
6791;SDS011;3433;48.730;9.108;2023-05-18T02:43:29;8.23;;;5.37;;
6791;SDS011;3433;48.730;9.108;2023-05-18T02:45:56;7.90;;;5.47;;
6791;SDS011;3433;48.730;9.108;2023-05-18T02:48:26;8.80;;;5.60;;
6791;SDS011;3433;48.730;9.108;2023-05-18T02:50:54;7.60;;;5.27;;
6791;SDS011;3433;48.730;9.108;2023-05-18T02:53:26;9.27;;;5.20;;
6791;SDS011;3433;48.730;9.108;2023-05-18T02:55:53;8.83;;;5.80;;
6791;SDS011;3433;48.730;9.108;2023-05-18T02:58:22;15.60;;;5.30;;
6791;SDS011;3433;48.730;9.108;2023-05-18T03:00:49;9.73;;;5.27;;
6791;SDS011;3433;48.730;9.108;2023-05-18T03:03:19;8.37;;;5.40;;
6791;SDS011;3433;48.730;9.108;2023-05-18T03:05:47;9.17;;;6.00;;
6791;SDS011;3433;48.730;9.108;2023-05-18T03:08:18;15.30;;;5.13;;
6791;SDS011;3433;48.730;9.108;2023-05-18T03:10:46;14.07;;;6.10;;
6791;SDS011;3433;48.730;9.108;2023-05-18T03:13:14;9.67;;;5.50;;
6791;SDS011;3433;48.730;9.108;2023-05-18T03:15:41;8.73;;;5.50;;
6791;SDS011;3433;48.730;9.108;2023-05-18T03:18:09;8.90;;;6.53;;
6791;SDS011;3433;48.730;9.108;2023-05-18T03:20:36;8.77;;;5.80;;
6791;SDS011;3433;48.730;9.108;2023-05-18T03:23:04;11.00;;;5.20;;
6791;SDS011;3433;48.730;9.108;2023-05-18T03:25:32;8.63;;;5.73;;
6791;SDS011;3433;48.730;9.108;2023-05-18T03:28:01;10.13;;;6.00;;
6791;SDS011;3433;48.730;9.108;2023-05-18T03:30:29;9.67;;;6.20;;
6791;SDS011;3433;48.730;9.108;2023-05-18T03:32:56;8.33;;;5.37;;
6791;SDS011;3433;48.730;9.108;2023-05-18T03:35:24;12.10;;;6.30;;
6791;SDS011;3433;48.730;9.108;2023-05-18T03:37:51;9.67;;;6.33;;
6791;SDS011;3433;48.730;9.108;2023-05-18T03:40:18;8.10;;;6.00;;
6791;SDS011;3433;48.730;9.108;2023-05-18T03:42:46;11.50;;;5.90;;
6791;SDS011;3433;48.730;9.108;2023-05-18T03:45:14;8.00;;;5.50;;
6791;SDS011;3433;48.730;9.108;2023-05-18T03:47:40;8.40;;;5.73;;
6791;SDS011;3433;48.730;9.108;2023-05-18T03:50:08;11.17;;;5.33;;
6791;SDS011;3433;48.730;9.108;2023-05-18T03:52:35;11.50;;;6.70;;
6791;SDS011;3433;48.730;9.108;2023-05-18T03:55:02;11.43;;;5.43;;
6791;SDS011;3433;48.730;9.108;2023-05-18T03:57:30;11.77;;;6.70;;
6791;SDS011;3433;48.730;9.108;2023-05-18T03:59:59;9.10;;;6.07;;
6791;SDS011;3433;48.730;9.108;2023-05-18T04:02:31;8.97;;;5.23;;
6791;SDS011;3433;48.730;9.108;2023-05-18T04:04:57;8.13;;;6.10;;
6791;SDS011;3433;48.730;9.108;2023-05-18T04:07:25;8.17;;;5.80;;
6791;SDS011;3433;48.730;9.108;2023-05-18T04:09:52;7.97;;;5.47;;
6791;SDS011;3433;48.730;9.108;2023-05-18T04:12:20;15.77;;;7.30;;
6791;SDS011;3433;48.730;9.108;2023-05-18T04:14:47;9.40;;;5.73;;
6791;SDS011;3433;48.730;9.108;2023-05-18T04:17:16;10.27;;;6.17;;
6791;SDS011;3433;48.730;9.108;2023-05-18T04:19:47;10.27;;;5.93;;
6791;SDS011;3433;48.730;9.108;2023-05-18T04:22:15;11.87;;;6.33;;
6791;SDS011;3433;48.730;9.108;2023-05-18T04:24:42;11.40;;;6.50;;
6791;SDS011;3433;48.730;9.108;2023-05-18T04:27:11;9.10;;;5.90;;
6791;SDS011;3433;48.730;9.108;2023-05-18T04:29:39;12.77;;;6.10;;
6791;SDS011;3433;48.730;9.108;2023-05-18T04:32:10;14.07;;;6.40;;
6791;SDS011;3433;48.730;9.108;2023-05-18T04:34:45;9.70;;;6.20;;
6791;SDS011;3433;48.730;9.108;2023-05-18T04:37:13;8.50;;;5.70;;
6791;SDS011;3433;48.730;9.108;2023-05-18T04:39:42;9.10;;;6.10;;
6791;SDS011;3433;48.730;9.108;2023-05-18T04:42:10;13.87;;;5.83;;
6791;SDS011;3433;48.730;9.108;2023-05-18T04:44:38;12.03;;;5.87;;
6791;SDS011;3433;48.730;9.108;2023-05-18T04:47:07;8.67;;;5.87;;
6791;SDS011;3433;48.730;9.108;2023-05-18T04:49:34;7.70;;;5.40;;
6791;SDS011;3433;48.730;9.108;2023-05-18T04:52:03;14.30;;;7.03;;
6791;SDS011;3433;48.730;9.108;2023-05-18T04:54:33;10.40;;;6.20;;
6791;SDS011;3433;48.730;9.108;2023-05-18T04:56:59;12.43;;;6.20;;
6791;SDS011;3433;48.730;9.108;2023-05-18T04:59:27;8.70;;;7.40;;
6791;SDS011;3433;48.730;9.108;2023-05-18T05:01:54;11.40;;;6.80;;
6791;SDS011;3433;48.730;9.108;2023-05-18T05:04:21;11.17;;;6.50;;
6791;SDS011;3433;48.730;9.108;2023-05-18T05:06:48;10.77;;;6.50;;
6791;SDS011;3433;48.730;9.108;2023-05-18T05:09:17;15.70;;;6.20;;
6791;SDS011;3433;48.730;9.108;2023-05-18T05:11:43;12.27;;;6.17;;
6791;SDS011;3433;48.730;9.108;2023-05-18T05:14:10;8.20;;;6.03;;
6791;SDS011;3433;48.730;9.108;2023-05-18T05:16:43;13.27;;;6.60;;
6791;SDS011;3433;48.730;9.108;2023-05-18T05:19:10;12.63;;;6.67;;
6791;SDS011;3433;48.730;9.108;2023-05-18T05:21:40;11.30;;;6.63;;
6791;SDS011;3433;48.730;9.108;2023-05-18T05:24:07;11.80;;;6.83;;
6791;SDS011;3433;48.730;9.108;2023-05-18T05:26:36;10.90;;;5.47;;
6791;SDS011;3433;48.730;9.108;2023-05-18T05:29:03;10.60;;;6.20;;
6791;SDS011;3433;48.730;9.108;2023-05-18T05:31:29;10.20;;;6.33;;
6791;SDS011;3433;48.730;9.108;2023-05-18T05:33:58;9.53;;;6.10;;
6791;SDS011;3433;48.730;9.108;2023-05-18T05:36:28;10.20;;;6.30;;
6791;SDS011;3433;48.730;9.108;2023-05-18T05:38:55;12.93;;;5.93;;
6791;SDS011;3433;48.730;9.108;2023-05-18T05:41:22;8.20;;;5.50;;
6791;SDS011;3433;48.730;9.108;2023-05-18T05:43:50;10.77;;;5.87;;
6791;SDS011;3433;48.730;9.108;2023-05-18T05:46:17;9.93;;;6.03;;
6791;SDS011;3433;48.730;9.108;2023-05-18T05:48:44;14.47;;;5.40;;
6791;SDS011;3433;48.730;9.108;2023-05-18T05:51:14;9.17;;;6.00;;
6791;SDS011;3433;48.730;9.108;2023-05-18T05:53:41;13.50;;;5.80;;
6791;SDS011;3433;48.730;9.108;2023-05-18T05:56:10;9.00;;;5.20;;
6791;SDS011;3433;48.730;9.108;2023-05-18T05:58:37;7.60;;;5.20;;
6791;SDS011;3433;48.730;9.108;2023-05-18T06:01:05;10.97;;;5.50;;
6791;SDS011;3433;48.730;9.108;2023-05-18T06:03:32;20.27;;;9.07;;
6791;SDS011;3433;48.730;9.108;2023-05-18T06:05:59;9.57;;;5.70;;
6791;SDS011;3433;48.730;9.108;2023-05-18T06:08:26;12.80;;;5.60;;
6791;SDS011;3433;48.730;9.108;2023-05-18T06:10:54;6.03;;;4.73;;
6791;SDS011;3433;48.730;9.108;2023-05-18T06:13:21;8.07;;;5.80;;
6791;SDS011;3433;48.730;9.108;2023-05-18T06:15:48;11.77;;;5.50;;
6791;SDS011;3433;48.730;9.108;2023-05-18T06:18:16;9.40;;;5.73;;
6791;SDS011;3433;48.730;9.108;2023-05-18T06:20:43;10.63;;;5.40;;
6791;SDS011;3433;48.730;9.108;2023-05-18T06:23:35;7.40;;;4.73;;
6791;SDS011;3433;48.730;9.108;2023-05-18T06:26:31;11.40;;;5.07;;
6791;SDS011;3433;48.730;9.108;2023-05-18T06:29:46;8.20;;;5.00;;
6791;SDS011;3433;48.730;9.108;2023-05-18T06:32:52;9.90;;;5.17;;
6791;SDS011;3433;48.730;9.108;2023-05-18T06:36:03;10.43;;;5.07;;
6791;SDS011;3433;48.730;9.108;2023-05-18T06:38:57;8.57;;;5.30;;
6791;SDS011;3433;48.730;9.108;2023-05-18T06:42:05;6.87;;;4.60;;
6791;SDS011;3433;48.730;9.108;2023-05-18T06:45:33;14.07;;;5.60;;
6791;SDS011;3433;48.730;9.108;2023-05-18T06:48:51;11.47;;;5.50;;
6791;SDS011;3433;48.730;9.108;2023-05-18T06:51:58;8.00;;;4.47;;
6791;SDS011;3433;48.730;9.108;2023-05-18T06:55:13;13.10;;;5.20;;
6791;SDS011;3433;48.730;9.108;2023-05-18T07:01:39;8.43;;;4.97;;
6791;SDS011;3433;48.730;9.108;2023-05-18T07:04:45;9.03;;;5.40;;
6791;SDS011;3433;48.730;9.108;2023-05-18T07:11:32;8.00;;;4.50;;
6791;SDS011;3433;48.730;9.108;2023-05-18T07:14:11;9.07;;;4.63;;
6791;SDS011;3433;48.730;9.108;2023-05-18T07:16:58;8.37;;;5.00;;
6791;SDS011;3433;48.730;9.108;2023-05-18T07:19:46;9.27;;;5.40;;
6791;SDS011;3433;48.730;9.108;2023-05-18T07:22:33;8.50;;;6.03;;
6791;SDS011;3433;48.730;9.108;2023-05-18T07:25:22;10.20;;;5.23;;
6791;SDS011;3433;48.730;9.108;2023-05-18T07:28:09;9.60;;;5.17;;
6791;SDS011;3433;48.730;9.108;2023-05-18T07:30:56;9.23;;;4.83;;
6791;SDS011;3433;48.730;9.108;2023-05-18T07:33:44;10.33;;;5.30;;
6791;SDS011;3433;48.730;9.108;2023-05-18T07:36:32;12.93;;;5.33;;
6791;SDS011;3433;48.730;9.108;2023-05-18T07:39:19;7.70;;;5.53;;
6791;SDS011;3433;48.730;9.108;2023-05-18T07:42:14;7.20;;;5.00;;
6791;SDS011;3433;48.730;9.108;2023-05-18T07:45:01;10.40;;;5.03;;
6791;SDS011;3433;48.730;9.108;2023-05-18T07:47:48;9.57;;;5.00;;
6791;SDS011;3433;48.730;9.108;2023-05-18T07:50:36;8.00;;;4.80;;
6791;SDS011;3433;48.730;9.108;2023-05-18T07:53:23;9.73;;;5.50;;
6791;SDS011;3433;48.730;9.108;2023-05-18T07:56:10;10.40;;;4.90;;
6791;SDS011;3433;48.730;9.108;2023-05-18T07:58:59;6.90;;;5.17;;
6791;SDS011;3433;48.730;9.108;2023-05-18T08:01:46;9.40;;;4.53;;
6791;SDS011;3433;48.730;9.108;2023-05-18T08:04:33;7.53;;;5.20;;
6791;SDS011;3433;48.730;9.108;2023-05-18T08:07:21;5.90;;;4.70;;
6791;SDS011;3433;48.730;9.108;2023-05-18T08:10:10;7.63;;;5.13;;
6791;SDS011;3433;48.730;9.108;2023-05-18T08:12:57;10.93;;;5.10;;
6791;SDS011;3433;48.730;9.108;2023-05-18T08:15:46;7.27;;;4.90;;
6791;SDS011;3433;48.730;9.108;2023-05-18T08:18:33;9.47;;;4.93;;
6791;SDS011;3433;48.730;9.108;2023-05-18T08:21:20;10.87;;;5.70;;
6791;SDS011;3433;48.730;9.108;2023-05-18T08:24:08;8.37;;;5.13;;
6791;SDS011;3433;48.730;9.108;2023-05-18T08:26:55;9.37;;;4.57;;
6791;SDS011;3433;48.730;9.108;2023-05-18T08:29:42;7.33;;;5.13;;
6791;SDS011;3433;48.730;9.108;2023-05-18T08:32:31;9.07;;;4.90;;
6791;SDS011;3433;48.730;9.108;2023-05-18T08:35:21;9.93;;;5.17;;
6791;SDS011;3433;48.730;9.108;2023-05-18T08:38:08;10.67;;;4.90;;
6791;SDS011;3433;48.730;9.108;2023-05-18T08:40:57;11.70;;;5.43;;
6791;SDS011;3433;48.730;9.108;2023-05-18T08:43:52;10.37;;;5.23;;
6791;SDS011;3433;48.730;9.108;2023-05-18T08:46:47;8.13;;;4.90;;
6791;SDS011;3433;48.730;9.108;2023-05-18T08:49:37;7.80;;;5.00;;
6791;SDS011;3433;48.730;9.108;2023-05-18T08:52:27;9.63;;;5.23;;
6791;SDS011;3433;48.730;9.108;2023-05-18T08:55:19;11.53;;;5.10;;
6791;SDS011;3433;48.730;9.108;2023-05-18T08:58:08;9.70;;;5.50;;
6791;SDS011;3433;48.730;9.108;2023-05-18T09:00:58;6.90;;;4.87;;
6791;SDS011;3433;48.730;9.108;2023-05-18T09:03:45;8.17;;;4.20;;
6791;SDS011;3433;48.730;9.108;2023-05-18T09:06:36;15.17;;;4.87;;
6791;SDS011;3433;48.730;9.108;2023-05-18T09:09:23;6.67;;;4.70;;
6791;SDS011;3433;48.730;9.108;2023-05-18T09:12:11;13.17;;;5.10;;
6791;SDS011;3433;48.730;9.108;2023-05-18T09:15:00;9.03;;;4.70;;
6791;SDS011;3433;48.730;9.108;2023-05-18T09:17:48;9.70;;;4.27;;
6791;SDS011;3433;48.730;9.108;2023-05-18T09:20:35;6.77;;;4.60;;
6791;SDS011;3433;48.730;9.108;2023-05-18T09:23:24;7.57;;;4.60;;
6791;SDS011;3433;48.730;9.108;2023-05-18T09:26:11;6.53;;;4.70;;
6791;SDS011;3433;48.730;9.108;2023-05-18T09:28:58;8.40;;;4.73;;
6791;SDS011;3433;48.730;9.108;2023-05-18T09:31:45;9.23;;;4.57;;
6791;SDS011;3433;48.730;9.108;2023-05-18T09:34:40;10.93;;;4.77;;
6791;SDS011;3433;48.730;9.108;2023-05-18T09:37:29;8.50;;;4.50;;
6791;SDS011;3433;48.730;9.108;2023-05-18T09:40:19;11.93;;;5.03;;
6791;SDS011;3433;48.730;9.108;2023-05-18T09:43:15;9.30;;;4.87;;
6791;SDS011;3433;48.730;9.108;2023-05-18T09:46:04;9.17;;;4.10;;
6791;SDS011;3433;48.730;9.108;2023-05-18T09:48:53;11.50;;;4.60;;
6791;SDS011;3433;48.730;9.108;2023-05-18T09:51:40;7.83;;;4.17;;
6791;SDS011;3433;48.730;9.108;2023-05-18T09:54:28;8.87;;;4.90;;
6791;SDS011;3433;48.730;9.108;2023-05-18T09:57:18;8.03;;;4.27;;
6791;SDS011;3433;48.730;9.108;2023-05-18T10:00:06;5.70;;;4.30;;
6791;SDS011;3433;48.730;9.108;2023-05-18T10:02:56;9.67;;;5.13;;
6791;SDS011;3433;48.730;9.108;2023-05-18T10:05:45;8.37;;;4.40;;
6791;SDS011;3433;48.730;9.108;2023-05-18T10:08:33;5.03;;;4.50;;
6791;SDS011;3433;48.730;9.108;2023-05-18T10:11:20;10.70;;;4.60;;
6791;SDS011;3433;48.730;9.108;2023-05-18T10:14:10;5.00;;;4.20;;
6791;SDS011;3433;48.730;9.108;2023-05-18T10:16:58;6.40;;;4.37;;
6791;SDS011;3433;48.730;9.108;2023-05-18T10:19:45;8.80;;;4.33;;
6791;SDS011;3433;48.730;9.108;2023-05-18T10:22:36;11.27;;;4.23;;
6791;SDS011;3433;48.730;9.108;2023-05-18T10:25:25;9.60;;;4.43;;
6791;SDS011;3433;48.730;9.108;2023-05-18T10:28:16;7.67;;;4.17;;
6791;SDS011;3433;48.730;9.108;2023-05-18T10:31:10;8.97;;;4.23;;
6791;SDS011;3433;48.730;9.108;2023-05-18T10:33:58;6.60;;;3.47;;
6791;SDS011;3433;48.730;9.108;2023-05-18T10:36:45;7.57;;;4.30;;
6791;SDS011;3433;48.730;9.108;2023-05-18T10:39:34;12.73;;;4.40;;
6791;SDS011;3433;48.730;9.108;2023-05-18T10:42:22;8.30;;;3.63;;
6791;SDS011;3433;48.730;9.108;2023-05-18T10:45:11;7.67;;;3.63;;
6791;SDS011;3433;48.730;9.108;2023-05-18T10:48:02;8.23;;;3.87;;
6791;SDS011;3433;48.730;9.108;2023-05-18T10:50:53;5.77;;;4.20;;
6791;SDS011;3433;48.730;9.108;2023-05-18T10:53:42;7.27;;;4.23;;
6791;SDS011;3433;48.730;9.108;2023-05-18T10:56:32;8.43;;;4.30;;
6791;SDS011;3433;48.730;9.108;2023-05-18T10:59:21;8.80;;;4.60;;
6791;SDS011;3433;48.730;9.108;2023-05-18T11:02:09;4.80;;;4.07;;
6791;SDS011;3433;48.730;9.108;2023-05-18T11:05:01;9.37;;;4.20;;
6791;SDS011;3433;48.730;9.108;2023-05-18T11:07:58;8.70;;;3.97;;
6791;SDS011;3433;48.730;9.108;2023-05-18T11:10:45;8.07;;;5.20;;
6791;SDS011;3433;48.730;9.108;2023-05-18T11:13:33;9.30;;;4.23;;
6791;SDS011;3433;48.730;9.108;2023-05-18T11:16:22;10.77;;;4.10;;
6791;SDS011;3433;48.730;9.108;2023-05-18T11:19:18;7.50;;;4.70;;
6791;SDS011;3433;48.730;9.108;2023-05-18T11:22:12;4.87;;;3.40;;
6791;SDS011;3433;48.730;9.108;2023-05-18T11:25:02;8.73;;;4.40;;
6791;SDS011;3433;48.730;9.108;2023-05-18T11:27:49;13.57;;;3.77;;
6791;SDS011;3433;48.730;9.108;2023-05-18T11:30:46;6.77;;;3.77;;
6791;SDS011;3433;48.730;9.108;2023-05-18T11:33:35;11.73;;;4.47;;
6791;SDS011;3433;48.730;9.108;2023-05-18T11:36:27;9.67;;;4.17;;
6791;SDS011;3433;48.730;9.108;2023-05-18T11:39:23;8.90;;;4.60;;
6791;SDS011;3433;48.730;9.108;2023-05-18T11:42:10;5.93;;;4.10;;
6791;SDS011;3433;48.730;9.108;2023-05-18T11:45:04;6.70;;;3.50;;
6791;SDS011;3433;48.730;9.108;2023-05-18T11:47:55;10.33;;;3.90;;
6791;SDS011;3433;48.730;9.108;2023-05-18T11:50:46;8.53;;;4.13;;
6791;SDS011;3433;48.730;9.108;2023-05-18T11:53:34;8.47;;;3.50;;
6791;SDS011;3433;48.730;9.108;2023-05-18T11:56:24;4.10;;;3.70;;
6791;SDS011;3433;48.730;9.108;2023-05-18T11:59:12;6.00;;;3.93;;
6791;SDS011;3433;48.730;9.108;2023-05-18T12:02:00;9.53;;;4.27;;
6791;SDS011;3433;48.730;9.108;2023-05-18T12:04:50;8.10;;;3.90;;
6791;SDS011;3433;48.730;9.108;2023-05-18T12:07:39;4.70;;;3.37;;
6791;SDS011;3433;48.730;9.108;2023-05-18T12:10:27;7.77;;;3.73;;
6791;SDS011;3433;48.730;9.108;2023-05-18T12:13:16;8.77;;;4.10;;
6791;SDS011;3433;48.730;9.108;2023-05-18T12:16:04;8.07;;;3.97;;
6791;SDS011;3433;48.730;9.108;2023-05-18T12:18:52;6.40;;;3.60;;
6791;SDS011;3433;48.730;9.108;2023-05-18T12:21:39;9.03;;;3.77;;
6791;SDS011;3433;48.730;9.108;2023-05-18T12:24:27;9.33;;;3.30;;
6791;SDS011;3433;48.730;9.108;2023-05-18T12:27:14;4.50;;;3.30;;
6791;SDS011;3433;48.730;9.108;2023-05-18T12:30:04;7.30;;;3.27;;
6791;SDS011;3433;48.730;9.108;2023-05-18T12:32:54;7.60;;;3.33;;
6791;SDS011;3433;48.730;9.108;2023-05-18T12:35:41;5.57;;;2.67;;
6791;SDS011;3433;48.730;9.108;2023-05-18T12:38:29;9.47;;;3.23;;
6791;SDS011;3433;48.730;9.108;2023-05-18T12:41:20;7.93;;;3.50;;
6791;SDS011;3433;48.730;9.108;2023-05-18T12:44:08;9.40;;;3.50;;
6791;SDS011;3433;48.730;9.108;2023-05-18T12:46:56;3.23;;;2.90;;
6791;SDS011;3433;48.730;9.108;2023-05-18T12:49:47;5.70;;;3.43;;
6791;SDS011;3433;48.730;9.108;2023-05-18T12:52:34;7.17;;;3.10;;
6791;SDS011;3433;48.730;9.108;2023-05-18T12:55:23;4.93;;;3.27;;
6791;SDS011;3433;48.730;9.108;2023-05-18T12:58:11;7.43;;;3.10;;
6791;SDS011;3433;48.730;9.108;2023-05-18T13:01:05;5.30;;;2.97;;
6791;SDS011;3433;48.730;9.108;2023-05-18T13:03:55;5.03;;;3.93;;
6791;SDS011;3433;48.730;9.108;2023-05-18T13:06:43;7.43;;;3.30;;
6791;SDS011;3433;48.730;9.108;2023-05-18T13:09:30;7.53;;;2.90;;
6791;SDS011;3433;48.730;9.108;2023-05-18T13:12:17;6.47;;;3.10;;
6791;SDS011;3433;48.730;9.108;2023-05-18T13:15:21;5.13;;;3.07;;
6791;SDS011;3433;48.730;9.108;2023-05-18T13:18:09;8.37;;;3.60;;
6791;SDS011;3433;48.730;9.108;2023-05-18T13:20:58;6.80;;;3.17;;
6791;SDS011;3433;48.730;9.108;2023-05-18T13:23:45;6.37;;;3.40;;
6791;SDS011;3433;48.730;9.108;2023-05-18T13:26:33;6.73;;;2.97;;
6791;SDS011;3433;48.730;9.108;2023-05-18T13:29:20;12.13;;;2.93;;
6791;SDS011;3433;48.730;9.108;2023-05-18T13:32:07;3.97;;;3.20;;
6791;SDS011;3433;48.730;9.108;2023-05-18T13:34:54;7.13;;;3.10;;
6791;SDS011;3433;48.730;9.108;2023-05-18T13:37:43;8.20;;;3.30;;
6791;SDS011;3433;48.730;9.108;2023-05-18T13:40:31;8.00;;;3.17;;
6791;SDS011;3433;48.730;9.108;2023-05-18T13:43:18;8.73;;;3.67;;
6791;SDS011;3433;48.730;9.108;2023-05-18T13:46:05;6.87;;;3.17;;
6791;SDS011;3433;48.730;9.108;2023-05-18T13:48:52;5.73;;;2.97;;
6791;SDS011;3433;48.730;9.108;2023-05-18T13:51:40;7.00;;;3.50;;
6791;SDS011;3433;48.730;9.108;2023-05-18T13:54:28;5.37;;;3.23;;
6791;SDS011;3433;48.730;9.108;2023-05-18T13:57:15;4.40;;;2.90;;
6791;SDS011;3433;48.730;9.108;2023-05-18T14:00:03;7.93;;;3.33;;
6791;SDS011;3433;48.730;9.108;2023-05-18T14:02:55;6.40;;;3.33;;
6791;SDS011;3433;48.730;9.108;2023-05-18T14:05:42;4.37;;;2.90;;
6791;SDS011;3433;48.730;9.108;2023-05-18T14:08:30;5.70;;;3.10;;
6791;SDS011;3433;48.730;9.108;2023-05-18T14:11:18;7.83;;;3.47;;
6791;SDS011;3433;48.730;9.108;2023-05-18T14:14:05;5.20;;;3.07;;
6791;SDS011;3433;48.730;9.108;2023-05-18T14:16:53;7.17;;;2.97;;
6791;SDS011;3433;48.730;9.108;2023-05-18T14:19:40;6.37;;;3.10;;
6791;SDS011;3433;48.730;9.108;2023-05-18T14:22:27;6.30;;;2.67;;
6791;SDS011;3433;48.730;9.108;2023-05-18T14:25:14;7.63;;;3.00;;
6791;SDS011;3433;48.730;9.108;2023-05-18T14:28:03;13.80;;;3.40;;
6791;SDS011;3433;48.730;9.108;2023-05-18T14:30:50;6.07;;;3.20;;
6791;SDS011;3433;48.730;9.108;2023-05-18T14:33:38;5.57;;;2.77;;
6791;SDS011;3433;48.730;9.108;2023-05-18T14:36:25;10.10;;;3.40;;
6791;SDS011;3433;48.730;9.108;2023-05-18T14:39:12;4.77;;;2.63;;
6791;SDS011;3433;48.730;9.108;2023-05-18T14:41:59;6.47;;;3.07;;
6791;SDS011;3433;48.730;9.108;2023-05-18T14:44:48;8.57;;;3.60;;
6791;SDS011;3433;48.730;9.108;2023-05-18T14:47:35;7.40;;;3.00;;
6791;SDS011;3433;48.730;9.108;2023-05-18T14:50:22;7.67;;;3.00;;
6791;SDS011;3433;48.730;9.108;2023-05-18T14:53:10;5.67;;;3.07;;
6791;SDS011;3433;48.730;9.108;2023-05-18T14:55:57;6.23;;;3.80;;
6791;SDS011;3433;48.730;9.108;2023-05-18T14:58:48;10.17;;;3.33;;
6791;SDS011;3433;48.730;9.108;2023-05-18T15:01:37;9.93;;;3.20;;
6791;SDS011;3433;48.730;9.108;2023-05-18T15:04:24;8.50;;;2.90;;
6791;SDS011;3433;48.730;9.108;2023-05-18T15:07:11;5.33;;;2.97;;
6791;SDS011;3433;48.730;9.108;2023-05-18T15:09:58;4.63;;;2.60;;
6791;SDS011;3433;48.730;9.108;2023-05-18T15:12:45;5.40;;;3.17;;
6791;SDS011;3433;48.730;9.108;2023-05-18T15:15:33;8.00;;;2.43;;
6791;SDS011;3433;48.730;9.108;2023-05-18T15:18:21;11.33;;;4.50;;
6791;SDS011;3433;48.730;9.108;2023-05-18T15:21:08;3.67;;;2.13;;
6791;SDS011;3433;48.730;9.108;2023-05-18T15:23:56;5.30;;;3.13;;
6791;SDS011;3433;48.730;9.108;2023-05-18T15:26:43;5.33;;;2.73;;
6791;SDS011;3433;48.730;9.108;2023-05-18T15:29:30;4.37;;;2.37;;
6791;SDS011;3433;48.730;9.108;2023-05-18T15:32:17;5.83;;;2.53;;
6791;SDS011;3433;48.730;9.108;2023-05-18T15:35:07;5.03;;;2.63;;
6791;SDS011;3433;48.730;9.108;2023-05-18T15:37:54;6.73;;;2.90;;
6791;SDS011;3433;48.730;9.108;2023-05-18T15:40:42;10.40;;;3.00;;
6791;SDS011;3433;48.730;9.108;2023-05-18T15:43:32;9.63;;;3.20;;
6791;SDS011;3433;48.730;9.108;2023-05-18T15:46:21;6.90;;;2.83;;
6791;SDS011;3433;48.730;9.108;2023-05-18T15:49:08;8.20;;;3.30;;
6791;SDS011;3433;48.730;9.108;2023-05-18T15:51:57;6.03;;;3.00;;
6791;SDS011;3433;48.730;9.108;2023-05-18T15:54:44;6.00;;;2.90;;
6791;SDS011;3433;48.730;9.108;2023-05-18T15:57:31;7.40;;;3.27;;
6791;SDS011;3433;48.730;9.108;2023-05-18T16:00:18;6.93;;;2.90;;
6791;SDS011;3433;48.730;9.108;2023-05-18T16:03:06;5.53;;;3.53;;
6791;SDS011;3433;48.730;9.108;2023-05-18T16:05:53;5.70;;;4.33;;
6791;SDS011;3433;48.730;9.108;2023-05-18T16:08:42;3.13;;;2.80;;
6791;SDS011;3433;48.730;9.108;2023-05-18T16:11:30;7.50;;;3.20;;
6791;SDS011;3433;48.730;9.108;2023-05-18T16:14:19;7.00;;;3.27;;
6791;SDS011;3433;48.730;9.108;2023-05-18T16:17:07;4.73;;;2.90;;
6791;SDS011;3433;48.730;9.108;2023-05-18T16:19:54;8.00;;;3.10;;
6791;SDS011;3433;48.730;9.108;2023-05-18T16:22:41;6.37;;;3.30;;
6791;SDS011;3433;48.730;9.108;2023-05-18T16:25:31;6.33;;;3.20;;
6791;SDS011;3433;48.730;9.108;2023-05-18T16:28:18;4.60;;;3.17;;
6791;SDS011;3433;48.730;9.108;2023-05-18T16:31:05;6.53;;;2.63;;
6791;SDS011;3433;48.730;9.108;2023-05-18T16:33:55;7.53;;;3.10;;
6791;SDS011;3433;48.730;9.108;2023-05-18T16:36:42;5.60;;;2.97;;
6791;SDS011;3433;48.730;9.108;2023-05-18T16:39:29;7.63;;;3.17;;
6791;SDS011;3433;48.730;9.108;2023-05-18T16:42:18;7.30;;;4.30;;
6791;SDS011;3433;48.730;9.108;2023-05-18T16:45:07;7.87;;;2.90;;
6791;SDS011;3433;48.730;9.108;2023-05-18T16:47:54;5.60;;;3.00;;